createdAt,value
2022-12-18T00:02:16.070Z,-2.60
2022-12-18T00:08:10.897Z,-2.80
2022-12-18T00:14:04.285Z,-2.90
2022-12-18T00:19:57.744Z,-3.30
2022-12-18T00:25:52.533Z,-3.10
2022-12-18T00:31:46.310Z,-3.00
2022-12-18T00:37:39.756Z,-3.20
2022-12-18T00:43:37.264Z,-2.90
2022-12-18T00:49:31.175Z,-2.90
2022-12-18T00:55:24.647Z,-3.20
2022-12-18T01:01:20.295Z,-3.30
2022-12-18T01:07:13.771Z,-3.20
2022-12-18T01:13:06.826Z,-3.00
2022-12-18T01:19:01.556Z,-2.80
2022-12-18T01:24:55.045Z,-3.10
2022-12-18T01:30:49.886Z,-3.20
2022-12-18T01:36:44.696Z,-3.40
2022-12-18T01:42:38.089Z,-3.60
2022-12-18T01:48:31.551Z,-3.50
2022-12-18T01:54:26.429Z,-3.60
2022-12-18T02:00:23.172Z,-3.60
2022-12-18T02:06:22.649Z,-3.60
2022-12-18T02:12:22.654Z,-3.60
2022-12-18T02:18:23.036Z,-3.60
2022-12-18T02:24:26.718Z,-3.50
2022-12-18T02:30:22.184Z,-3.60
2022-12-18T02:36:18.573Z,-3.90
2022-12-18T02:42:14.173Z,-4.00
2022-12-18T02:48:10.827Z,-4.10
2022-12-18T02:54:12.693Z,-4.30
2022-12-18T03:00:09.994Z,-4.20
2022-12-18T03:06:11.057Z,-4.00
2022-12-18T03:12:26.609Z,-3.90
2022-12-18T03:18:26.009Z,-3.80
2022-12-18T03:24:22.873Z,-3.80
2022-12-18T03:30:17.949Z,-3.50
2022-12-18T03:36:12.495Z,-3.50
2022-12-18T03:42:13.941Z,-3.50
2022-12-18T03:48:18.679Z,-3.40
2022-12-18T03:54:14.326Z,-3.30
2022-12-18T04:00:19.855Z,-3.70
2022-12-18T04:06:23.305Z,-3.80
2022-12-18T04:12:18.233Z,-3.90
2022-12-18T04:18:15.155Z,-4.00
2022-12-18T04:24:10.796Z,-4.00
2022-12-18T04:30:10.530Z,-4.30
2022-12-18T04:36:06.112Z,-4.10
2022-12-18T04:41:59.757Z,-4.30
2022-12-18T04:47:52.732Z,-4.10
2022-12-18T04:53:47.636Z,-4.20
2022-12-18T04:59:41.335Z,-4.20
2022-12-18T05:05:36.214Z,-4.00
2022-12-18T05:11:31.029Z,-3.90
2022-12-18T05:17:24.517Z,-3.90
2022-12-18T05:23:18.080Z,-4.00
2022-12-18T05:29:14.135Z,-4.10
2022-12-18T05:35:09.850Z,-4.10
2022-12-18T05:41:03.419Z,-4.20
2022-12-18T05:46:58.380Z,-3.70
2022-12-18T05:52:52.956Z,-3.90
2022-12-18T05:58:48.147Z,-3.80
2022-12-18T06:04:42.762Z,-3.90
2022-12-18T06:10:36.483Z,-4.00
2022-12-18T06:16:32.289Z,-4.00
2022-12-18T06:22:27.556Z,-3.90
2022-12-18T06:28:21.067Z,-4.00
2022-12-18T06:34:15.673Z,-3.90
2022-12-18T06:40:10.938Z,-3.80
2022-12-18T06:46:08.449Z,-4.00
2022-12-18T06:52:02.290Z,-3.90
2022-12-18T06:57:57.160Z,-3.90
2022-12-18T07:04:15.311Z,-4.00
2022-12-18T07:10:23.886Z,-4.10
2022-12-18T07:16:25.341Z,-4.60
2022-12-18T07:22:20.460Z,-4.30
2022-12-18T07:28:17.605Z,-4.50
2022-12-18T07:34:14.158Z,-4.60
2022-12-18T07:40:08.804Z,-4.50
2022-12-18T07:46:02.168Z,-4.60
2022-12-18T07:51:58.702Z,-4.60
2022-12-18T07:57:55.403Z,-4.50
2022-12-18T08:03:53.288Z,-4.50
2022-12-18T08:09:48.520Z,-4.40
2022-12-18T08:15:42.245Z,-4.20
2022-12-18T08:21:35.694Z,-4.30
2022-12-18T08:27:30.687Z,-3.90
2022-12-18T08:33:24.310Z,-3.80
2022-12-18T08:39:17.873Z,-3.50
2022-12-18T08:45:13.214Z,-3.50
2022-12-18T08:51:06.948Z,-3.30
2022-12-18T08:57:00.736Z,-3.10
2022-12-18T09:02:55.790Z,-3.00
2022-12-18T09:08:49.475Z,-2.90
2022-12-18T09:14:42.629Z,-2.90
2022-12-18T09:20:37.459Z,-2.10
2022-12-18T09:26:30.554Z,-2.30
2022-12-18T09:32:24.090Z,-2.30
2022-12-18T09:38:20.351Z,-1.60
2022-12-18T09:44:20.248Z,-1.40
2022-12-18T09:50:26.174Z,-0.50
2022-12-18T09:56:24.247Z,-0.10
2022-12-18T10:02:20.159Z,0.10
2022-12-18T10:08:20.098Z,0.50
2022-12-18T10:14:22.478Z,0.40
2022-12-18T10:20:22.165Z,0.80
2022-12-18T10:26:15.618Z,0.10
2022-12-18T10:32:17.180Z,0.10
2022-12-18T10:38:25.863Z,0.20
2022-12-18T10:44:22.887Z,0.90
2022-12-18T10:50:47.211Z,1.60
2022-12-18T10:56:44.855Z,1.10
2022-12-18T11:02:40.632Z,1.40
2022-12-18T11:08:36.113Z,1.30
2022-12-18T11:14:30.840Z,2.40
2022-12-18T11:20:33.549Z,2.60
2022-12-18T11:26:37.543Z,2.80
2022-12-18T11:32:36.067Z,2.30
2022-12-18T11:38:33.142Z,1.40
2022-12-18T11:44:34.105Z,1.60
2022-12-18T11:50:32.261Z,1.60
2022-12-18T11:56:34.445Z,1.30
2022-12-18T12:02:44.431Z,2.10
2022-12-18T12:08:49.520Z,2.70
2022-12-18T12:14:52.876Z,2.40
2022-12-18T12:20:56.033Z,1.80
2022-12-18T12:26:57.894Z,1.40
2022-12-18T12:33:10.350Z,1.40
2022-12-18T12:39:10.711Z,0.70
2022-12-18T12:45:09.291Z,0.50
2022-12-18T12:51:05.232Z,0.60
2022-12-18T12:57:10.488Z,0.10
2022-12-18T13:03:14.564Z,1.10
2022-12-18T13:09:08.699Z,1.00
2022-12-18T13:15:24.142Z,0.70
2022-12-18T13:21:24.774Z,1.10
2022-12-18T13:28:02.823Z,1.50
2022-12-18T13:34:26.221Z,1.00
2022-12-18T13:40:58.931Z,1.00
2022-12-18T13:46:53.830Z,0.30
2022-12-18T13:52:48.719Z,0.10
2022-12-18T13:58:42.549Z,0.30
2022-12-18T14:04:37.495Z,0.00
2022-12-18T14:10:45.526Z,0.00
2022-12-18T14:16:43.374Z,-0.50
2022-12-18T14:22:37.097Z,-0.50
2022-12-18T14:28:32.464Z,-0.90
2022-12-18T14:34:29.346Z,-1.00
2022-12-18T14:40:22.848Z,-0.90
2022-12-18T14:46:35.135Z,-1.10
2022-12-18T14:52:31.547Z,-0.90
2022-12-18T14:58:25.550Z,-0.90
2022-12-18T15:04:31.247Z,-0.90
2022-12-18T15:10:27.419Z,-1.10
2022-12-18T15:16:21.135Z,-1.20
2022-12-18T15:22:32.054Z,-1.40
2022-12-18T15:28:27.813Z,-1.30
2022-12-18T15:34:23.706Z,-1.30
2022-12-18T15:40:20.559Z,-1.50
2022-12-18T15:46:16.266Z,-1.60
2022-12-18T15:52:27.348Z,-1.60
2022-12-18T15:58:22.315Z,-1.80
2022-12-18T16:04:17.054Z,-1.90
2022-12-18T16:10:11.068Z,-1.80
2022-12-18T16:16:06.255Z,-1.90
2022-12-18T16:22:01.586Z,-2.00
2022-12-18T16:27:55.991Z,-2.10
2022-12-18T16:33:51.007Z,-2.10
2022-12-18T16:39:44.885Z,-2.20
2022-12-18T16:45:37.901Z,-2.20
2022-12-18T16:51:37.026Z,-2.10
2022-12-18T16:57:30.484Z,-2.00
2022-12-18T17:03:23.584Z,-2.10
2022-12-18T17:09:19.009Z,-2.20
2022-12-18T17:15:12.932Z,-2.30
2022-12-18T17:21:10.903Z,-2.10
2022-12-18T17:27:06.209Z,-2.00
2022-12-18T17:32:59.570Z,-1.90
2022-12-18T17:38:54.633Z,-2.00
2022-12-18T17:44:49.672Z,-1.90
2022-12-18T17:50:43.048Z,-2.10
2022-12-18T17:56:36.406Z,-1.90
2022-12-18T18:02:31.322Z,-2.20
2022-12-18T18:08:25.670Z,-2.10
2022-12-18T18:14:21.743Z,-2.00
2022-12-18T18:20:22.644Z,-2.00
2022-12-18T18:26:16.371Z,-2.10
2022-12-18T18:32:10.031Z,-2.00
2022-12-18T18:38:04.960Z,-2.20
2022-12-18T18:43:59.911Z,-2.10
2022-12-18T18:49:53.603Z,-2.00
2022-12-18T18:56:04.037Z,-2.00
2022-12-18T19:02:04.798Z,-2.10
2022-12-18T19:07:58.539Z,-2.00
2022-12-18T19:13:53.279Z,-1.90
2022-12-18T19:19:49.744Z,-1.80
2022-12-18T19:25:43.466Z,-1.80
2022-12-18T19:31:38.793Z,-2.00
2022-12-18T19:37:32.436Z,-1.90
2022-12-18T19:43:25.594Z,-1.90
2022-12-18T19:49:24.091Z,-1.90
2022-12-18T19:55:18.051Z,-1.90
2022-12-18T20:01:16.233Z,-1.80
2022-12-18T20:07:13.164Z,-1.90
2022-12-18T20:13:09.720Z,-1.80
2022-12-18T20:19:03.168Z,-1.80
2022-12-18T20:24:58.353Z,-1.90
2022-12-18T20:30:52.627Z,-1.90
2022-12-18T20:36:46.433Z,-1.90
2022-12-18T20:42:41.382Z,-1.90
2022-12-18T20:48:35.270Z,-1.80
2022-12-18T20:54:29.433Z,-1.90
2022-12-18T21:00:24.385Z,-1.80
2022-12-18T21:06:19.814Z,-1.70
2022-12-18T21:12:29.384Z,-1.80
2022-12-18T21:18:27.823Z,-1.80
2022-12-18T21:24:22.160Z,-1.70
2022-12-18T21:30:16.030Z,-1.60
2022-12-18T21:36:11.624Z,-1.60
2022-12-18T21:42:23.170Z,-1.50
2022-12-18T21:48:16.259Z,-1.60
2022-12-18T21:54:11.405Z,-1.50
2022-12-18T22:00:05.869Z,-1.60
2022-12-18T22:06:09.377Z,-1.70
2022-12-18T22:12:04.579Z,-1.70
2022-12-18T22:18:00.329Z,-1.70
2022-12-18T22:23:55.547Z,-1.80
2022-12-18T22:30:05.640Z,-1.80
2022-12-18T22:37:05.302Z,-1.70
2022-12-18T22:42:59.028Z,-1.70
2022-12-18T22:48:54.192Z,-1.70
2022-12-18T22:54:47.649Z,-1.60
2022-12-18T23:00:41.882Z,-1.50
2022-12-18T23:06:42.616Z,-1.60
2022-12-18T23:12:37.903Z,-1.70
2022-12-18T23:18:31.930Z,-1.60
2022-12-18T23:24:26.935Z,-1.60
2022-12-18T23:30:20.514Z,-1.60
2022-12-18T23:36:15.001Z,-1.60
2022-12-18T23:42:09.835Z,-1.60
2022-12-18T23:48:05.229Z,-1.70
2022-12-18T23:54:01.263Z,-1.60
2022-12-18T23:59:56.087Z,-1.60
